Time;durP1;ratioP1;P1;durP2;ratioP2;P2;SDS_P1;SDS_P2;PMS_P1;PMS_P2;Temp;Humidity;BMP_temperature;BMP_pressure;BME280_temperature;BME280_humidity;BME280_pressure;Samples;Min_cycle;Max_cycle;Signal;HPM_P1;HPM_P2
2023/10/25 00:00:10;;;;;;;0.20;0.20;;;;;;;8.95;100.00;94926.69;1022900;29;20027;-74
2023/10/25 00:00:41;;;;;;;0.50;0.40;;;;;;;9.01;100.00;94933.44;1023125;29;20027;-75
2023/10/25 00:01:11;;;;;;;0.50;0.50;;;;;;;9.03;100.00;94935.81;1023028;28;20426;-75
2023/10/25 00:01:42;;;;;;;0.32;0.30;;;;;;;9.02;100.00;94937.66;1027316;28;20038;-75
2023/10/25 00:02:12;;;;;;;0.20;0.20;;;;;;;8.94;100.00;94927.75;1030073;28;20529;-73
2023/10/25 00:02:43;;;;;;;0.10;0.10;;;;;;;9.00;100.00;94934.50;1031307;28;20042;-75
2023/10/25 00:03:14;;;;;;;0.40;0.40;;;;;;;8.98;100.00;94939.22;1028871;28;20034;-77
2023/10/25 00:03:45;;;;;;;0.22;0.22;;;;;;;8.99;100.00;94932.94;1026939;28;20047;-75
2023/10/25 00:04:15;;;;;;;0.30;0.30;;;;;;;9.01;100.00;94936.06;1020705;29;20917;-75
2023/10/25 00:04:46;;;;;;;0.43;0.43;;;;;;;9.01;100.00;94941.28;1023058;29;20118;-75
2023/10/25 00:05:16;;;;;;;0.30;0.30;;;;;;;8.98;100.00;94945.22;1019314;29;20028;-75
2023/10/25 00:05:47;;;;;;;0.40;0.40;;;;;;;8.91;100.00;94930.91;1019293;29;20063;-75
2023/10/25 00:06:17;;;;;;;0.10;0.10;;;;;;;8.96;100.00;94942.13;1023171;28;20419;-75
2023/10/25 00:06:47;;;;;;;0.40;0.20;;;;;;;8.98;100.00;94944.44;1027314;28;20019;-76
2023/10/25 00:07:19;;;;;;;0.47;0.47;;;;;;;8.95;100.00;94942.38;1027231;28;20487;-76
2023/10/25 00:07:49;;;;;;;0.10;0.10;;;;;;;8.97;100.00;94942.91;1025825;28;20510;-74
2023/10/25 00:08:20;;;;;;;0.38;0.20;;;;;;;8.89;100.00;94940.88;1022473;29;20275;-75
2023/10/25 00:08:50;;;;;;;0.20;0.20;;;;;;;8.95;100.00;94945.00;1007552;29;20025;-76
2023/10/25 00:09:21;;;;;;;0.55;0.55;;;;;;;8.96;100.00;94944.75;1007640;29;20029;-75
2023/10/25 00:09:51;;;;;;;0.43;0.43;;;;;;;8.93;100.00;94941.88;1008950;29;20033;-77
2023/10/25 00:10:21;;;;;;;0.40;0.40;;;;;;;8.93;100.00;94942.66;1015438;28;20055;-74
2023/10/25 00:11:01;;;;;;;0.65;0.65;;;;;;;8.96;100.00;94944.75;1023013;29;20024;-76
2023/10/25 00:11:32;;;;;;;1.10;1.10;;;;;;;8.91;100.00;94942.13;1015172;29;20778;-75
2023/10/25 00:12:02;;;;;;;0.43;0.43;;;;;;;8.95;100.00;94948.41;1015236;29;20024;-75
2023/10/25 00:12:33;;;;;;;1.15;0.77;;;;;;;8.97;100.00;94955.97;1015384;29;20035;-77
2023/10/25 00:13:03;;;;;;;0.90;0.35;;;;;;;8.95;100.00;94950.22;1011423;29;20020;-74
2023/10/25 00:13:34;;;;;;;0.40;0.38;;;;;;;8.84;100.00;94933.81;1019486;28;20028;-75
2023/10/25 00:14:05;;;;;;;0.93;0.40;;;;;;;8.97;100.00;94950.75;1027214;28;20025;-74
2023/10/25 00:14:35;;;;;;;0.13;0.13;;;;;;;8.96;100.00;94957.81;1031244;28;20097;-75
2023/10/25 00:15:06;;;;;;;0.20;0.20;;;;;;;8.96;100.00;94952.59;1034931;28;20521;-75
2023/10/25 00:15:37;;;;;;;0.65;0.65;;;;;;;8.92;100.00;94953.38;1027440;28;20014;-75
2023/10/25 00:16:07;;;;;;;1.10;0.17;;;;;;;8.89;100.00;94946.88;1027155;28;20023;-76
2023/10/25 00:16:38;;;;;;;0.30;0.30;;;;;;;8.97;100.00;94954.16;1026958;28;20019;-77
2023/10/25 00:17:08;;;;;;;0.15;0.15;;;;;;;8.95;100.00;94955.47;1027280;28;20018;-74
2023/10/25 00:17:38;;;;;;;0.10;0.10;;;;;;;8.91;100.00;94949.22;1027077;28;20130;-75
2023/10/25 00:18:09;;;;;;;0.65;0.65;;;;;;;8.96;100.00;94954.44;1027059;28;20027;-74
2023/10/25 00:18:40;;;;;;;0.40;0.40;;;;;;;8.96;100.00;94957.03;1023127;29;20027;-75
2023/10/25 00:19:10;;;;;;;0.63;0.32;;;;;;;8.96;100.00;94962.28;1023236;28;20367;-76
2023/10/25 00:19:40;;;;;;;0.10;0.10;;;;;;;8.98;100.00;94960.16;1026793;28;20068;-73
2023/10/25 00:20:11;;;;;;;0.25;0.25;;;;;;;8.97;100.00;94954.16;1026707;28;20019;-75
2023/10/25 00:20:41;;;;;;;2.85;0.15;;;;;;;8.97;100.00;94958.59;1027034;28;20062;-73
2023/10/25 00:21:12;;;;;;;0.20;0.20;;;;;;;8.92;100.00;94945.53;1018992;29;20542;-75
2023/10/25 00:21:42;;;;;;;0.30;0.28;;;;;;;9.00;100.00;94954.66;1024870;28;20023;-77
2023/10/25 00:22:13;;;;;;;0.10;0.10;;;;;;;9.01;100.00;94958.84;1026955;28;20023;-75
2023/10/25 00:22:44;;;;;;;0.22;0.22;;;;;;;8.96;100.00;94955.19;1026928;28;20522;-75
2023/10/25 00:23:14;;;;;;;0.43;0.43;;;;;;;8.94;100.00;94951.28;1026963;28;20274;-77
2023/10/25 00:23:45;;;;;;;0.55;0.45;;;;;;;8.98;100.00;94954.91;1027202;28;20030;-75
2023/10/25 00:24:15;;;;;;;0.10;0.10;;;;;;;8.94;100.00;94953.91;1027166;28;20207;-78
2023/10/25 00:24:46;;;;;;;0.70;0.70;;;;;;;8.99;100.00;94961.72;1026922;28;20030;-76
2023/10/25 00:25:17;;;;;;;0.63;0.10;;;;;;;8.93;100.00;94953.13;1026959;28;20022;-75
2023/10/25 00:25:50;;;;;;;0.10;0.10;;;;;;;8.89;100.00;94951.34;1023260;29;20324;-75
2023/10/25 00:26:20;;;;;;;5.00;1.38;;;;;;;8.93;100.00;94960.19;1023732;28;20362;-75
2023/10/25 00:26:51;;;;;;;0.13;0.13;;;;;;;8.88;100.00;94953.16;1026866;28;20273;-75
2023/10/25 00:27:21;;;;;;;0.32;0.32;;;;;;;8.92;100.00;94963.84;1023094;29;20466;-76
2023/10/25 00:27:52;;;;;;;0.10;0.10;;;;;;;8.92;100.00;94961.22;1023265;28;20071;-75
2023/10/25 00:28:22;;;;;;;0.43;0.43;;;;;;;8.92;100.00;94967.28;1026902;28;20275;-75
2023/10/25 00:28:53;;;;;;;0.38;0.25;;;;;;;8.83;100.00;94947.19;1023186;28;20031;-75
2023/10/25 00:29:24;;;;;;;0.47;0.40;;;;;;;8.92;100.00;94962.03;1023122;29;20043;-75
2023/10/25 00:29:54;;;;;;;0.00;0.00;;;;;;;8.94;100.00;94966.97;1022468;29;20122;-76
2023/10/25 00:30:25;;;;;;;0.10;0.10;;;;;;;8.93;100.00;94968.81;1026896;28;20034;-76
2023/10/25 00:30:55;;;;;;;0.68;0.68;;;;;;;8.91;100.00;94959.69;1027393;28;20027;-75
2023/10/25 00:31:26;;;;;;;0.00;0.00;;;;;;;8.93;100.00;94963.59;1031087;28;20015;-75
2023/10/25 00:31:56;;;;;;;0.17;0.13;;;;;;;8.92;100.00;94964.66;1026988;28;20026;-75
2023/10/25 00:32:27;;;;;;;0.65;0.65;;;;;;;8.91;100.00;94970.13;1027103;28;20035;-76
2023/10/25 00:32:57;;;;;;;0.60;0.60;;;;;;;8.87;100.00;94958.66;1026936;28;20037;-76
2023/10/25 00:33:28;;;;;;;0.10;0.10;;;;;;;8.90;100.00;94965.97;1027096;28;20151;-75
2023/10/25 00:33:58;;;;;;;0.30;0.30;;;;;;;8.90;100.00;94968.59;1023118;29;20038;-76
2023/10/25 00:34:28;;;;;;;1.27;0.50;;;;;;;8.89;100.00;94961.78;1019277;29;20035;-78
2023/10/25 00:34:59;;;;;;;1.60;0.82;;;;;;;8.90;100.00;94968.59;1019213;29;20039;-75
2023/10/25 00:35:29;;;;;;;0.60;0.40;;;;;;;8.88;100.00;94954.97;1019079;28;20091;-75
2023/10/25 00:36:00;;;;;;;0.32;0.32;;;;;;;8.83;100.00;94955.81;1023118;28;20027;-76
2023/10/25 00:36:30;;;;;;;0.20;0.20;;;;;;;8.91;100.00;94960.44;1023231;28;20078;-76
2023/10/25 00:37:01;;;;;;;0.38;0.20;;;;;;;8.90;100.00;94958.91;1026824;28;20341;-74
2023/10/25 00:37:31;;;;;;;0.70;0.70;;;;;;;8.91;100.00;94954.44;1031333;28;20517;-74
2023/10/25 00:38:02;;;;;;;0.63;0.63;;;;;;;8.91;100.00;94959.69;1031041;28;20383;-75
2023/10/25 00:38:32;;;;;;;0.20;0.20;;;;;;;8.88;100.00;94949.75;1023373;28;20480;-74
2023/10/25 00:39:03;;;;;;;0.20;0.20;;;;;;;8.87;100.00;94940.34;1027100;28;20101;-77
2023/10/25 00:39:33;;;;;;;0.20;0.20;;;;;;;8.85;100.00;94940.63;1019021;29;20032;-75
2023/10/25 00:40:04;;;;;;;0.20;0.20;;;;;;;8.88;100.00;94955.75;1018815;29;20032;-75
2023/10/25 00:40:35;;;;;;;0.10;0.10;;;;;;;8.83;100.00;94936.72;1022976;28;20039;-76
2023/10/25 00:41:05;;;;;;;0.22;0.22;;;;;;;8.88;100.00;94944.50;1026886;28;20329;-76
2023/10/25 00:41:36;;;;;;;0.10;0.08;;;;;;;8.89;100.00;94946.09;1027236;28;20072;-75
2023/10/25 00:42:06;;;;;;;0.20;0.20;;;;;;;8.84;100.00;94938.28;1030905;28;20062;-76
2023/10/25 00:42:37;;;;;;;0.45;0.45;;;;;;;8.82;100.00;94935.94;1026938;28;20437;-76
2023/10/25 00:43:20;;;;;;;0.35;0.10;;;;;;;8.90;100.00;94947.66;1031071;28;20029;-76
2023/10/25 00:43:50;;;;;;;0.10;0.10;;;;;;;8.86;100.00;94942.19;1022938;29;20027;-76
2023/10/25 00:44:21;;;;;;;0.22;0.10;;;;;;;8.83;100.00;94936.72;1023181;28;20383;-76
2023/10/25 00:44:51;;;;;;;0.20;0.20;;;;;;;8.87;100.00;94937.72;1023018;29;20028;-77
2023/10/25 00:45:22;;;;;;;0.10;0.10;;;;;;;8.84;100.00;94940.88;1022663;29;20046;-75
2023/10/25 00:46:09;;;;;;;0.85;0.80;;;;;;;8.88;100.00;94949.75;1015249;29;20392;-76
2023/10/25 00:46:39;;;;;;;0.63;0.52;;;;;;;8.87;100.00;94948.97;1015274;29;20274;-77
2023/10/25 00:47:09;;;;;;;0.40;0.40;;;;;;;8.89;100.00;94948.72;1022890;29;20262;-74
2023/10/25 00:47:41;;;;;;;0.63;0.40;;;;;;;8.81;100.00;94939.59;1023087;29;20031;-76
2023/10/25 00:48:11;;;;;;;0.15;0.15;;;;;;;8.85;100.00;94947.66;1019201;29;20026;-75
2023/10/25 00:48:45;;;;;;;0.50;0.30;;;;;;;8.85;100.00;94939.81;1019113;29;20247;-74
2023/10/25 00:49:16;;;;;;;0.50;0.43;;;;;;;8.83;100.00;94941.94;1019080;29;20118;-75
2023/10/25 00:49:47;;;;;;;0.30;0.22;;;;;;;8.86;100.00;94947.41;1026368;28;20828;-76
2023/10/25 00:50:17;;;;;;;0.25;0.25;;;;;;;8.82;100.00;94937.75;1018891;29;20027;-74
2023/10/25 00:50:48;;;;;;;0.08;0.08;;;;;;;8.74;100.00;94932.03;1019040;29;20039;-76
2023/10/25 00:51:18;;;;;;;0.20;0.20;;;;;;;8.84;100.00;94952.13;1019101;29;20709;-76
2023/10/25 00:51:49;;;;;;;0.10;0.10;;;;;;;8.81;100.00;94941.44;1018726;29;20024;-75
2023/10/25 00:52:19;;;;;;;0.00;0.00;;;;;;;8.77;100.00;94937.78;1018944;29;20067;-76
2023/10/25 00:52:49;;;;;;;0.13;0.13;;;;;;;8.84;100.00;94944.28;1023255;29;20023;-75
2023/10/25 00:53:20;;;;;;;0.13;0.13;;;;;;;8.84;100.00;94943.50;1026935;28;20448;-76
2023/10/25 00:53:52;;;;;;;0.25;0.25;;;;;;;8.82;100.00;94940.38;1022980;29;20015;-74
2023/10/25 00:54:22;;;;;;;0.17;0.13;;;;;;;8.83;100.00;94949.78;1023096;29;20058;-75
2023/10/25 00:54:53;;;;;;;0.55;0.55;;;;;;;8.81;100.00;94944.03;1019141;29;20271;-74
2023/10/25 00:55:23;;;;;;;0.73;0.65;;;;;;;8.80;100.00;94942.47;1019269;29;20522;-75
2023/10/25 00:55:54;;;;;;;0.75;0.75;;;;;;;8.82;100.00;94945.59;1022718;29;20023;-74
2023/10/25 00:56:25;;;;;;;1.40;0.63;;;;;;;8.82;100.00;94932.50;1019058;29;20039;-75
2023/10/25 00:56:55;;;;;;;2.25;0.82;;;;;;;8.83;100.00;94939.34;1015182;29;20039;-75
2023/10/25 00:57:26;;;;;;;0.30;0.30;;;;;;;8.83;100.00;94941.94;1020921;29;20268;-76
2023/10/25 00:57:56;;;;;;;0.13;0.13;;;;;;;8.84;100.00;94944.28;1023001;29;20023;-75
2023/10/25 00:58:27;;;;;;;0.10;0.10;;;;;;;8.85;100.00;94942.44;1023009;29;20030;-77
2023/10/25 00:58:59;;;;;;;0.93;0.22;;;;;;;8.86;100.00;94936.19;1027178;28;20018;-76
2023/10/25 00:59:29;;;;;;;0.52;0.32;;;;;;;8.80;100.00;94926.78;1019885;29;20016;-75
2023/10/25 01:00:00;;;;;;;0.22;0.22;;;;;;;8.88;100.00;94947.91;1014546;29;20275;-75
2023/10/25 01:00:31;;;;;;;0.35;0.35;;;;;;;8.85;100.00;94931.97;1019060;29;20027;-75
2023/10/25 01:01:02;;;;;;;0.63;0.10;;;;;;;8.83;100.00;94932.25;1023034;29;20270;-75
2023/10/25 01:01:32;;;;;;;0.28;0.28;;;;;;;8.81;100.00;94938.81;1018896;29;20274;-74
2023/10/25 01:02:03;;;;;;;0.17;0.17;;;;;;;8.81;100.00;94938.81;1019217;29;20020;-77
2023/10/25 01:02:33;;;;;;;0.03;0.03;;;;;;;8.88;100.00;94944.50;1015049;29;20076;-74
2023/10/25 01:03:06;;;;;;;0.98;0.30;;;;;;;8.86;100.00;94944.03;1015181;29;20391;-75
2023/10/25 01:03:37;;;;;;;0.25;0.25;;;;;;;8.87;100.00;94938.50;1022937;29;20019;-76
2023/10/25 01:04:07;;;;;;;0.00;0.00;;;;;;;8.87;100.00;94945.56;1029380;28;20281;-75
2023/10/25 01:04:38;;;;;;;0.00;0.00;;;;;;;8.85;100.00;94945.06;1025375;28;20353;-75
2023/10/25 01:05:08;;;;;;;0.15;0.15;;;;;;;8.84;100.00;94939.03;1023065;29;20530;-75
2023/10/25 01:05:39;;;;;;;0.47;0.30;;;;;;;8.85;100.00;94945.06;1022998;29;20023;-75
2023/10/25 01:06:10;;;;;;;0.65;0.20;;;;;;;8.84;100.00;94939.03;1023104;29;20019;-75
2023/10/25 01:06:40;;;;;;;0.00;0.00;;;;;;;8.81;100.00;94941.44;1019133;29;20267;-77
2023/10/25 01:07:11;;;;;;;4.95;0.55;;;;;;;8.83;100.00;94947.19;1027149;28;20487;-75
2023/10/25 01:07:41;;;;;;;0.10;0.10;;;;;;;8.78;100.00;94936.72;1029688;28;20390;-75
2023/10/25 01:08:11;;;;;;;0.68;0.52;;;;;;;8.82;100.00;94945.59;1030517;28;20030;-75
2023/10/25 01:08:42;;;;;;;0.00;0.00;;;;;;;8.77;100.00;94932.56;1027173;28;20081;-75
2023/10/25 01:09:12;;;;;;;0.73;0.73;;;;;;;8.76;100.00;94937.00;1027076;28;20060;-75
2023/10/25 01:09:43;;;;;;;0.32;0.32;;;;;;;8.83;100.00;94940.09;1026251;28;20508;-75
2023/10/25 01:10:13;;;;;;;0.00;0.00;;;;;;;8.83;100.00;94941.94;1026907;28;20023;-75
2023/10/25 01:10:44;;;;;;;0.68;0.40;;;;;;;8.74;100.00;94929.41;1026851;28;20545;-74
2023/10/25 01:11:14;;;;;;;0.15;0.15;;;;;;;8.73;100.00;94933.09;1026786;28;20395;-76
2023/10/25 01:11:45;;;;;;;0.22;0.22;;;;;;;8.76;100.00;94936.22;1022935;29;20137;-76
2023/10/25 01:12:15;;;;;;;0.35;0.35;;;;;;;8.76;100.00;94942.25;1022916;29;20402;-76
2023/10/25 01:12:46;;;;;;;0.20;0.20;;;;;;;8.77;100.00;94932.56;1022992;29;20078;-76
2023/10/25 01:13:19;;;;;;;0.25;0.25;;;;;;;8.71;100.00;94924.72;1022866;29;20216;-76
2023/10/25 01:13:49;;;;;;;0.03;0.03;;;;;;;8.69;100.00;94926.06;1023096;28;20046;-76
2023/10/25 01:14:20;;;;;;;0.25;0.17;;;;;;;8.74;100.00;94933.88;1019369;29;20271;-75
2023/10/25 01:14:50;;;;;;;0.10;0.10;;;;;;;8.70;100.00;94928.41;1022721;29;20027;-76
2023/10/25 01:15:22;;;;;;;0.13;0.13;;;;;;;8.65;100.00;94920.59;1023048;28;20042;-75
2023/10/25 01:15:53;;;;;;;0.08;0.08;;;;;;;8.68;100.00;94927.88;1018931;29;20185;-75
2023/10/25 01:16:23;;;;;;;0.30;0.30;;;;;;;8.67;100.00;94926.31;1018843;29;20287;-73
2023/10/25 01:16:54;;;;;;;0.10;0.10;;;;;;;8.63;100.00;94917.47;1022746;29;20479;-78
2023/10/25 01:17:24;;;;;;;0.60;0.38;;;;;;;8.65;100.00;94925.84;1023035;28;20027;-75
2023/10/25 01:17:54;;;;;;;0.47;0.47;;;;;;;8.60;100.00;94923.22;1027055;28;20035;-74
2023/10/25 01:18:25;;;;;;;0.30;0.30;;;;;;;8.56;100.00;94922.22;1023074;28;20031;-75
2023/10/25 01:18:56;;;;;;;0.40;0.40;;;;;;;8.54;100.00;94926.13;1022881;29;20392;-75
2023/10/25 01:19:27;;;;;;;0.17;0.17;;;;;;;8.53;100.00;94927.97;1019069;29;20499;-77
2023/10/25 01:19:57;;;;;;;0.35;0.35;;;;;;;8.50;100.00;94923.28;1022424;28;20050;-75
2023/10/25 01:20:27;;;;;;;1.27;1.17;;;;;;;8.46;100.00;94922.25;1027170;28;20297;-76
2023/10/25 01:20:58;;;;;;;0.20;0.20;;;;;;;8.47;100.00;94919.38;1018783;29;20056;-75
2023/10/25 01:21:28;;;;;;;0.80;0.80;;;;;;;8.41;100.00;94920.44;1019175;29;20512;-76
2023/10/25 01:21:59;;;;;;;0.73;0.52;;;;;;;8.40;100.00;94915.50;1018866;29;20585;-75
2023/10/25 01:22:29;;;;;;;0.00;0.00;;;;;;;8.41;100.00;94920.44;1019346;28;20455;-77
2023/10/25 01:23:00;;;;;;;0.85;0.85;;;;;;;8.38;100.00;94920.97;1023090;28;20031;-76
2023/10/25 01:23:30;;;;;;;0.08;0.08;;;;;;;8.39;100.00;94921.78;1026923;28;20566;-76
2023/10/25 01:24:01;;;;;;;0.30;0.30;;;;;;;8.40;100.00;94918.09;1027112;28;20454;-76
2023/10/25 01:24:31;;;;;;;0.10;0.10;;;;;;;8.40;100.00;94915.50;1026640;28;20039;-74
2023/10/25 01:25:02;;;;;;;0.28;0.28;;;;;;;8.40;100.00;94910.25;1025326;28;20035;-75
2023/10/25 01:25:32;;;;;;;0.30;0.30;;;;;;;8.40;100.00;94912.88;1023058;28;20111;-77
2023/10/25 01:26:03;;;;;;;1.67;0.50;;;;;;;8.41;100.00;94911.81;1026917;28;20030;-76
2023/10/25 01:26:33;;;;;;;0.10;0.10;;;;;;;8.41;100.00;94909.97;1022818;28;20027;-76
2023/10/25 01:27:04;;;;;;;0.10;0.10;;;;;;;8.41;100.00;94909.19;1026656;28;20030;-76
2023/10/25 01:27:34;;;;;;;0.30;0.30;;;;;;;8.43;100.00;94910.50;1030771;28;20457;-77
2023/10/25 01:28:05;;;;;;;0.20;0.17;;;;;;;8.37;100.00;94906.31;1027137;28;20030;-75
2023/10/25 01:28:35;;;;;;;0.10;0.10;;;;;;;8.34;100.00;94899.00;1022744;29;20031;-75
2023/10/25 01:29:06;;;;;;;0.22;0.22;;;;;;;8.45;100.00;94910.22;1026511;28;20077;-74
2023/10/25 01:29:36;;;;;;;3.85;0.68;;;;;;;8.48;100.00;94914.91;1018942;29;20086;-75
2023/10/25 01:30:07;;;;;;;0.68;0.68;;;;;;;8.47;100.00;94911.53;1015379;28;20039;-75
2023/10/25 01:30:38;;;;;;;1.23;1.23;;;;;;;8.47;100.00;94908.91;1023246;28;20538;-77
2023/10/25 01:31:09;;;;;;;0.93;0.88;;;;;;;8.47;100.00;94916.75;1027572;28;20038;-76
2023/10/25 01:31:39;;;;;;;0.13;0.13;;;;;;;8.48;100.00;94912.31;1026896;28;20268;-76
2023/10/25 01:32:09;;;;;;;1.60;1.25;;;;;;;8.49;100.00;94921.72;1022212;29;20027;-76
2023/10/25 01:32:40;;;;;;;0.40;0.40;;;;;;;8.49;100.00;94911.28;1027066;28;20033;-75
2023/10/25 01:33:10;;;;;;;0.43;0.30;;;;;;;8.50;100.00;94910.22;1027147;28;20279;-79
2023/10/25 01:33:41;;;;;;;0.55;0.55;;;;;;;8.38;100.00;94896.66;1026808;28;20498;-77
2023/10/25 01:34:11;;;;;;;0.30;0.30;;;;;;;8.48;100.00;94914.91;1018922;29;20039;-76
2023/10/25 01:34:42;;;;;;;0.63;0.63;;;;;;;8.50;100.00;94907.59;1019189;29;20043;-76
2023/10/25 01:35:12;;;;;;;1.05;0.40;;;;;;;8.49;100.00;94911.28;1018924;29;20069;-76
2023/10/25 01:35:43;;;;;;;0.43;0.30;;;;;;;8.45;100.00;94907.59;1018889;29;20038;-76
2023/10/25 01:36:13;;;;;;;0.47;0.47;;;;;;;8.49;100.00;94914.66;1022934;29;20090;-75
2023/10/25 01:36:44;;;;;;;0.32;0.32;;;;;;;8.44;100.00;94911.28;1023079;29;20042;-75
2023/10/25 01:37:15;;;;;;;0.32;0.32;;;;;;;8.44;100.00;94909.44;1026659;28;20058;-75
2023/10/25 01:37:46;;;;;;;0.47;0.47;;;;;;;8.49;100.00;94916.50;1019266;29;20271;-75
2023/10/25 01:38:16;;;;;;;0.50;0.50;;;;;;;8.49;100.00;94917.28;1023264;28;20430;-75
2023/10/25 01:38:46;;;;;;;0.30;0.30;;;;;;;8.49;100.00;94911.28;1026895;28;20037;-77
2023/10/25 01:39:17;;;;;;;0.30;0.30;;;;;;;8.47;100.00;94911.53;1026877;28;20037;-75
2023/10/25 01:39:47;;;;;;;0.50;0.50;;;;;;;8.39;100.00;94901.66;1025822;28;20237;-75
2023/10/25 01:40:18;;;;;;;0.38;0.32;;;;;;;8.45;100.00;94910.22;1022574;29;20031;-76
2023/10/25 01:40:48;;;;;;;1.15;0.47;;;;;;;8.39;100.00;94903.47;1026913;28;20510;-74
2023/10/25 01:41:19;;;;;;;0.17;0.17;;;;;;;8.43;100.00;94904.50;1019058;29;20036;-76
2023/10/25 01:41:49;;;;;;;0.05;0.05;;;;;;;8.40;100.00;94907.66;1018992;29;20039;-76
2023/10/25 01:42:20;;;;;;;0.40;0.40;;;;;;;8.43;100.00;94907.13;1018814;29;20034;-74
2023/10/25 01:42:54;;;;;;;0.35;0.35;;;;;;;8.40;100.00;94905.81;1018990;29;20669;-74
2023/10/25 01:43:24;;;;;;;1.13;0.93;;;;;;;8.41;100.00;94909.19;1019059;29;20035;-75
2023/10/25 01:43:55;;;;;;;0.40;0.40;;;;;;;8.40;100.00;94907.66;1015340;29;20280;-75
2023/10/25 01:44:25;;;;;;;0.45;0.35;;;;;;;8.40;100.00;94910.25;1022842;29;20490;-74
2023/10/25 01:44:56;;;;;;;0.28;0.15;;;;;;;8.38;100.00;94915.75;1019023;29;20031;-74
2023/10/25 01:45:30;;;;;;;0.30;0.30;;;;;;;8.32;100.00;94902.97;1022828;28;20031;-76
2023/10/25 01:46:02;;;;;;;0.47;0.47;;;;;;;8.33;100.00;94907.13;1026884;28;20026;-76
2023/10/25 01:46:32;;;;;;;1.25;1.15;;;;;;;8.30;100.00;94902.44;1022943;29;20267;-75
2023/10/25 01:47:03;;;;;;;0.93;0.63;;;;;;;8.35;100.00;94912.84;1022886;29;20735;-74
2023/10/25 01:47:34;;;;;;;1.08;0.50;;;;;;;8.30;100.00;94903.22;1026910;28;20034;-76
2023/10/25 01:48:04;;;;;;;1.13;0.80;;;;;;;8.27;100.00;94904.53;1026858;28;20313;-77
2023/10/25 01:48:37;;;;;;;0.10;0.10;;;;;;;8.32;100.00;94908.97;1023145;29;20024;-75
2023/10/25 01:49:08;;;;;;;0.08;0.08;;;;;;;8.35;100.00;94911.06;1018916;29;20262;-74
2023/10/25 01:49:38;;;;;;;0.73;0.73;;;;;;;8.36;100.00;94914.44;1022772;29;20773;-75
2023/10/25 01:50:09;;;;;;;0.20;0.20;;;;;;;8.29;100.00;94903.50;1022731;28;20118;-74
2023/10/25 01:50:39;;;;;;;0.30;0.30;;;;;;;8.34;100.00;94919.13;1022826;29;20051;-74
2023/10/25 01:51:10;;;;;;;0.10;0.10;;;;;;;8.33;100.00;94918.38;1022845;28;20542;-76
2023/10/25 01:51:40;;;;;;;0.75;0.38;;;;;;;8.34;100.00;94916.53;1015140;29;20031;-75
2023/10/25 01:52:11;;;;;;;0.15;0.15;;;;;;;8.29;100.00;94917.34;1011525;29;20084;-76
2023/10/25 01:52:41;;;;;;;0.00;0.00;;;;;;;8.34;100.00;94925.16;1019135;29;20020;-76
2023/10/25 01:53:11;;;;;;;0.55;0.55;;;;;;;8.33;100.00;94920.97;1011357;29;20029;-75
2023/10/25 01:53:42;;;;;;;0.20;0.20;;;;;;;8.33;100.00;94913.13;1022937;28;20542;-75
2023/10/25 01:54:12;;;;;;;1.27;1.05;;;;;;;8.34;100.00;94924.38;1022713;29;20066;-75
2023/10/25 01:54:45;;;;;;;0.90;0.90;;;;;;;8.35;100.00;94921.50;1022918;28;20042;-77
2023/10/25 01:55:15;;;;;;;0.20;0.20;;;;;;;8.34;100.00;94908.69;1022862;29;20422;-75
2023/10/25 01:55:48;;;;;;;0.35;0.35;;;;;;;8.36;100.00;94924.91;1021142;28;20369;-75
2023/10/25 01:56:18;;;;;;;1.17;0.77;;;;;;;8.34;100.00;94917.31;1026626;28;20566;-74
2023/10/25 01:56:49;;;;;;;0.55;0.47;;;;;;;8.34;100.00;94913.91;1028006;28;20270;-75
2023/10/25 01:57:19;;;;;;;0.60;0.60;;;;;;;8.36;100.00;94911.81;1026768;28;20110;-75
2023/10/25 01:57:50;;;;;;;0.63;0.63;;;;;;;8.35;100.00;94913.66;1026745;28;20038;-76
2023/10/25 01:58:20;;;;;;;0.38;0.38;;;;;;;8.26;100.00;94902.19;1022709;29;20031;-75
2023/10/25 01:58:51;;;;;;;0.70;0.55;;;;;;;8.32;100.00;94905.56;1026783;28;20411;-75
2023/10/25 01:59:21;;;;;;;0.85;0.85;;;;;;;8.32;100.00;94910.81;1022701;29;20035;-75
2023/10/25 01:59:51;;;;;;;0.98;0.98;;;;;;;8.30;100.00;94899.81;1022295;28;20039;-75
2023/10/25 02:00:22;;;;;;;0.55;0.55;;;;;;;8.39;100.00;94917.31;1022614;29;20051;-74
2023/10/25 02:00:52;;;;;;;0.40;0.40;;;;;;;8.39;100.00;94913.94;1018973;28;20660;-75
2023/10/25 02:01:23;;;;;;;0.57;0.30;;;;;;;8.37;100.00;94918.59;1026716;28;20039;-76
2023/10/25 02:01:53;;;;;;;0.32;0.22;;;;;;;8.37;100.00;94913.38;1022886;28;20035;-72
2023/10/25 02:02:24;;;;;;;0.20;0.20;;;;;;;8.37;100.00;94918.59;1030648;28;20034;-74
2023/10/25 02:02:54;;;;;;;1.27;0.60;;;;;;;8.36;100.00;94911.81;1030463;28;20619;-77
2023/10/25 02:03:25;;;;;;;0.68;0.68;;;;;;;8.36;100.00;94917.06;1030895;28;20033;-76
2023/10/25 02:03:55;;;;;;;0.20;0.20;;;;;;;8.36;100.00;94922.28;1026758;28;20046;-74
2023/10/25 02:04:26;;;;;;;0.52;0.50;;;;;;;8.36;100.00;94917.06;1025308;28;20034;-79
2023/10/25 02:04:56;;;;;;;0.60;0.60;;;;;;;8.36;100.00;94911.81;1030595;28;20026;-74
2023/10/25 02:05:27;;;;;;;0.50;0.50;;;;;;;8.33;100.00;94920.97;1034878;28;20034;-74
2023/10/25 02:05:57;;;;;;;0.47;0.25;;;;;;;8.29;100.00;94901.66;1035020;28;20066;-74
2023/10/25 02:06:27;;;;;;;0.73;0.73;;;;;;;8.34;100.00;94914.69;1026572;28;20505;-75
2023/10/25 02:06:58;;;;;;;0.35;0.35;;;;;;;8.31;100.00;94904.00;1026683;28;20031;-75
2023/10/25 02:07:28;;;;;;;0.20;0.20;;;;;;;8.32;100.00;94916.03;1022797;29;20015;-75
2023/10/25 02:07:59;;;;;;;0.20;0.20;;;;;;;8.33;100.00;94918.38;1022874;28;20039;-76
2023/10/25 02:08:29;;;;;;;0.52;0.52;;;;;;;8.32;100.00;94910.81;1030877;28;20022;-75
2023/10/25 02:09:00;;;;;;;1.15;1.10;;;;;;;8.32;100.00;94916.03;1030649;28;20038;-74
2023/10/25 02:09:30;;;;;;;0.88;0.88;;;;;;;8.23;100.00;94898.28;1030753;28;20066;-75
2023/10/25 02:10:01;;;;;;;0.20;0.20;;;;;;;8.31;100.00;94917.84;1025925;28;20053;-76
2023/10/25 02:10:33;;;;;;;0.17;0.17;;;;;;;8.27;100.00;94901.13;1022818;29;20101;-76
2023/10/25 02:11:04;;;;;;;0.30;0.30;;;;;;;8.31;100.00;94910.00;1022954;28;20032;-74
2023/10/25 02:11:34;;;;;;;0.08;0.08;;;;;;;8.29;100.00;94906.88;1023233;28;20259;-75
2023/10/25 02:12:05;;;;;;;1.85;1.23;;;;;;;8.29;100.00;94904.28;1018968;29;20031;-75
2023/10/25 02:12:35;;;;;;;1.17;1.08;;;;;;;8.27;100.00;94909.75;1018837;29;20114;-75
2023/10/25 02:13:06;;;;;;;2.13;0.65;;;;;;;8.26;100.00;94902.19;1022620;29;20114;-74
2023/10/25 02:13:37;;;;;;;1.08;0.98;;;;;;;8.24;100.00;94904.28;1022875;28;20023;-74
2023/10/25 02:14:08;;;;;;;7.88;0.65;;;;;;;8.22;100.00;94904.56;1026727;28;20023;-75
2023/10/25 02:14:38;;;;;;;0.95;0.95;;;;;;;8.18;100.00;94895.69;1027024;28;20774;-75
2023/10/25 02:15:09;;;;;;;0.15;0.15;;;;;;;8.19;100.00;94905.09;1026386;28;20832;-75
2023/10/25 02:15:39;;;;;;;0.03;0.03;;;;;;;8.14;100.00;94892.03;1026804;28;20026;-75
2023/10/25 02:16:15;;;;;;;0.17;0.17;;;;;;;8.18;100.00;94903.53;1026640;28;20027;-76
2023/10/25 02:16:45;;;;;;;0.63;0.63;;;;;;;8.15;100.00;94898.84;1026555;28;20609;-74
2023/10/25 02:17:16;;;;;;;0.80;0.45;;;;;;;8.07;100.00;94891.53;1014966;29;20295;-75
2023/10/25 02:17:47;;;;;;;2.28;0.70;;;;;;;8.12;100.00;94901.22;1011180;29;20050;-74
2023/10/25 02:18:17;;;;;;;0.10;0.10;;;;;;;8.08;100.00;94890.50;1018800;29;20272;-75
2023/10/25 02:18:48;;;;;;;0.52;0.52;;;;;;;8.04;100.00;94890.25;1019143;28;20510;-75
2023/10/25 02:19:19;;;;;;;0.65;0.65;;;;;;;8.08;100.00;94894.94;1022851;28;20038;-76
2023/10/25 02:19:49;;;;;;;0.15;0.15;;;;;;;8.08;100.00;94890.50;1021973;28;20117;-76
2023/10/25 02:20:20;;;;;;;0.65;0.65;;;;;;;8.08;100.00;94893.13;1026640;28;20776;-76
2023/10/25 02:20:50;;;;;;;0.35;0.35;;;;;;;8.01;100.00;94885.56;1022684;28;20101;-75
2023/10/25 02:21:21;;;;;;;0.20;0.20;;;;;;;8.06;100.00;94892.59;1022778;29;20043;-74
2023/10/25 02:21:51;;;;;;;1.00;0.30;;;;;;;8.07;100.00;94894.16;1022659;29;20035;-75
2023/10/25 02:22:22;;;;;;;0.50;0.50;;;;;;;8.03;100.00;94887.91;1022956;28;20061;-76
2023/10/25 02:22:52;;;;;;;0.20;0.20;;;;;;;8.03;100.00;94887.91;1026153;28;20069;-77
2023/10/25 02:23:22;;;;;;;0.20;0.20;;;;;;;8.02;100.00;94900.19;1028459;28;20042;-75
2023/10/25 02:23:53;;;;;;;2.00;0.93;;;;;;;8.01;100.00;94893.41;1025910;28;20502;-75
2023/10/25 02:24:24;;;;;;;0.63;0.25;;;;;;;7.94;100.00;94884.28;1019405;29;20134;-76
2023/10/25 02:24:54;;;;;;;0.85;0.85;;;;;;;8.00;100.00;94894.44;1027056;28;20030;-75